Etusivu
METAR-TAF:

METAR-TAF

Lentoasemat :

Bossier City, Louisiana, Yhdysvallat

Leveyspiiri: 32-30N, Pituuspiiri: 093-40W, korkeus merenpinnasta: 51 m

Tämänhetkinen sää

Tämä raportti tehtiin 25 minuuttia sitten, kello 10.56 UTC
tyyntä
Lämpötila 2°C
Kosteus 100%
Ilmanpaine 1015 hPa
Näkyvyys: 9.7 km
selkeää
utua

METAR: KBAD 181056Z AUTO 00000KT 6SM BR CLR 02/02 A2996 RMK AO2 SLP149 T00190018

Aika: 05:21 (11:21 UTC)

Sääennuste

Tämä raportti tehtiin 1 tunti ja 21 minuuttia sitten, kello 10.00 UTC
Ennuste voimassa 18. päivästä klo 10 UTC - 19. päivään klo 16 UTC
Tuuli 6 kn lännestä/lounaasta
Näkyvyys: 1816 m
Muutamia pilviä 25000 ft:n korkeudessa

TAF: KBAD 181000Z 1810/1916 32006KT 9999 FEW250 QNH2988INS WND 24006KT AFT 1816 TX17/1821Z TN02/1811Z

Säähavainnot ja -ennusteet yli 4000 lentoasemalta (METAR- ja TAF-raportit).

Käytössä olevat sääasemat on merkitty karttaan keltaisilla ja punaisilla pisteillä.

Aseta hiiri pisteen päälle nähdäksesi sääaseman nimen.

Klikkaa sitten nähdäksesi säähavainnot ja -ennusteet.

Kartan vaihtaminen: klikkaa mustalla rastilla varustettuja vihreitä pisteitä, niin voit zoomata sisään; viivalla varustettua vihreää pistettä, niin voit zoomata ulos tai vihreitä nuolia, niin pääset viereisille kartoille.


METAR-TAF: